Time;durP1;ratioP1;P1;durP2;ratioP2;P2;SDS_P1;SDS_P2;PMS_P1;PMS_P2;Temp;Humidity;BMP_temperature;BMP_pressure;BME280_temperature;BME280_humidity;BME280_pressure;Samples;Min_cycle;Max_cycle;Signal;HPM_P1;HPM_P2
2023/01/30 00:02:22;;;;;;;1.67;1.58;;;23.90;99.90;;;;;;5094384;28;20211;-77
2023/01/30 00:04:53;;;;;;;1.75;1.50;;;23.90;99.90;;;;;;5086833;28;20720;-74
2023/01/30 00:07:24;;;;;;;1.70;1.60;;;23.90;99.90;;;;;;5074165;28;20274;-77
2023/01/30 00:09:55;;;;;;;2.88;1.42;;;23.90;99.90;;;;;;5074081;28;20201;-78
2023/01/30 00:12:28;;;;;;;8.38;3.28;;;24.00;99.90;;;;;;5074382;28;20225;-75
2023/01/30 00:14:59;;;;;;;3.58;1.40;;;24.00;99.90;;;;;;5073887;28;20189;-74
2023/01/30 00:17:30;;;;;;;1.40;1.30;;;24.00;99.90;;;;;;5073792;28;20268;-77
2023/01/30 00:20:01;;;;;;;2.10;1.50;;;24.00;99.90;;;;;;5073809;28;20217;-77
2023/01/30 00:22:32;;;;;;;2.35;1.58;;;24.10;99.90;;;;;;5073575;28;20272;-76
2023/01/30 00:25:03;;;;;;;3.05;1.52;;;24.10;99.90;;;;;;5073955;28;20228;-77
2023/01/30 00:27:36;;;;;;;2.97;1.60;;;24.10;99.90;;;;;;5073869;28;20195;-75
2023/01/30 00:30:07;;;;;;;1.50;1.40;;;24.10;99.90;;;;;;5073418;28;20291;-77
2023/01/30 00:32:38;;;;;;;1.90;1.50;;;24.20;99.90;;;;;;5073857;28;20191;-78
2023/01/30 00:35:10;;;;;;;1.70;1.50;;;24.20;99.90;;;;;;5073765;28;20191;-74
2023/01/30 00:37:41;;;;;;;1.42;1.33;;;24.30;99.90;;;;;;5092628;28;20214;-77
2023/01/30 00:40:13;;;;;;;1.98;1.30;;;24.30;99.90;;;;;;5093192;28;20220;-78
2023/01/30 00:48:20;;;;;;;2.65;1.85;;;24.40;99.90;;;;;;5070485;28;20212;-78
2023/01/30 00:50:51;;;;;;;1.50;1.40;;;24.40;99.90;;;;;;5073524;28;20188;-77
2023/01/30 00:53:21;;;;;;;2.30;1.20;;;24.40;99.90;;;;;;5073696;28;20291;-79
2023/01/30 00:55:54;;;;;;;1.45;1.20;;;24.50;99.90;;;;;;5069904;28;20271;-76
2023/01/30 00:58:27;;;;;;;2.10;1.42;;;24.50;99.90;;;;;;5069864;28;20247;-76
2023/01/30 01:00:58;;;;;;;1.77;1.48;;;24.50;99.90;;;;;;5072231;28;20536;-75
2023/01/30 01:03:29;;;;;;;2.15;1.73;;;24.60;99.90;;;;;;5072164;28;20558;-76
2023/01/30 01:06:00;;;;;;;3.97;2.13;;;24.60;99.90;;;;;;5071722;28;20284;-77
2023/01/30 01:08:31;;;;;;;6.85;1.80;;;24.70;99.90;;;;;;5073103;28;20193;-73
2023/01/30 01:11:02;;;;;;;1.70;1.30;;;24.70;99.90;;;;;;5072021;28;20203;-75
2023/01/30 01:13:35;;;;;;;2.47;1.58;;;24.70;99.90;;;;;;5071845;28;20193;-74
2023/01/30 01:16:06;;;;;;;2.75;1.30;;;24.70;99.90;;;;;;5071337;28;20193;-73
2023/01/30 01:18:37;;;;;;;2.97;1.48;;;24.70;99.90;;;;;;5072147;28;20216;-76
2023/01/30 01:21:08;;;;;;;2.22;1.33;;;24.70;99.90;;;;;;5072650;28;20185;-74
2023/01/30 01:23:39;;;;;;;1.40;1.30;;;24.80;99.90;;;;;;5061717;28;20279;-77
2023/01/30 01:26:10;;;;;;;1.77;1.25;;;24.80;99.90;;;;;;5070071;28;20719;-75
2023/01/30 01:28:43;;;;;;;1.70;1.30;;;25.00;99.90;;;;;;5072369;28;20574;-76
2023/01/30 01:31:15;;;;;;;3.20;1.83;;;25.10;99.90;;;;;;5071097;28;20197;-76
2023/01/30 01:33:46;;;;;;;5.95;2.00;;;25.20;99.90;;;;;;5071673;28;20658;-77
2023/01/30 01:36:17;;;;;;;3.42;1.50;;;25.30;99.90;;;;;;5072063;28;20207;-75
2023/01/30 01:38:48;;;;;;;1.48;1.20;;;25.60;99.90;;;;;;5071071;28;20208;-73
2023/01/30 01:41:18;;;;;;;2.15;1.27;;;25.90;99.90;;;;;;5071639;28;20193;-80
2023/01/30 01:44:08;;;;;;;1.27;1.08;;;26.10;99.90;;;;;;5072360;28;20663;-79
2023/01/30 01:46:44;;;;;;;2.80;1.38;;;26.30;99.90;;;;;;5075342;28;20659;-76
2023/01/30 01:49:21;;;;;;;1.88;1.00;;;26.50;99.90;;;;;;5076911;28;20224;-76
2023/01/30 01:51:59;;;;;;;1.30;1.15;;;26.70;99.90;;;;;;5076864;28;20272;-78
2023/01/30 01:54:35;;;;;;;2.83;1.00;;;26.90;99.90;;;;;;5074881;28;20281;-77
2023/01/30 01:57:10;;;;;;;2.00;1.20;;;27.10;99.90;;;;;;5070216;28;20208;-78
2023/01/30 01:59:49;;;;;;;1.95;1.20;;;27.30;99.90;;;;;;5074604;28;20248;-79
2023/01/30 02:02:20;;;;;;;1.20;1.10;;;27.40;99.90;;;;;;5056663;28;20282;-77
2023/01/30 02:05:05;;;;;;;1.13;1.00;;;27.70;99.90;;;;;;5072654;28;20284;-76
2023/01/30 02:07:39;;;;;;;1.30;1.00;;;27.80;99.90;;;;;;5074469;28;20201;-76
2023/01/30 02:10:13;;;;;;;1.10;1.00;;;28.00;99.90;;;;;;5073615;28;20207;-78
2023/01/30 02:12:49;;;;;;;3.47;1.40;;;28.10;99.90;;;;;;5068301;28;20276;-79
2023/01/30 02:15:23;;;;;;;4.93;1.80;;;28.30;99.90;;;;;;5073040;28;20205;-80
2023/01/30 02:17:54;;;;;;;1.38;1.27;;;28.50;99.90;;;;;;5072481;28;20541;-82
2023/01/30 02:20:32;;;;;;;1.02;0.93;;;28.60;99.90;;;;;;5075159;28;20217;-80
2023/01/30 02:23:44;;;;;;;1.95;1.02;;;28.80;99.90;;;;;;5075039;28;20208;-79
2023/01/30 02:27:11;;;;;;;1.13;1.02;;;28.90;99.90;;;;;;5074840;28;20664;-78
2023/01/30 02:30:10;;;;;;;1.10;1.00;;;28.90;99.90;;;;;;5072948;28;20287;-78
2023/01/30 02:32:52;;;;;;;1.10;1.00;;;29.10;99.90;;;;;;5073860;28;20200;-81
2023/01/30 02:35:30;;;;;;;1.38;1.20;;;29.10;99.90;;;;;;5056738;28;20232;-82
2023/01/30 02:38:14;;;;;;;1.38;1.20;;;29.10;99.90;;;;;;5074893;28;20196;-80
2023/01/30 02:40:58;;;;;;;1.30;1.20;;;29.20;99.90;;;;;;5074711;28;20282;-78
2023/01/30 02:43:36;;;;;;;1.70;1.30;;;29.20;99.90;;;;;;5075801;28;20284;-75
2023/01/30 02:46:13;;;;;;;1.38;1.27;;;29.30;99.90;;;;;;5075081;28;20218;-83
2023/01/30 02:48:49;;;;;;;1.50;1.20;;;29.20;99.90;;;;;;5073947;28;20647;-78
2023/01/30 02:51:24;;;;;;;1.15;1.08;;;29.30;99.90;;;;;;5074578;28;20191;-79
2023/01/30 02:53:55;;;;;;;2.35;1.25;;;29.40;99.90;;;;;;5077525;28;20183;-85
2023/01/30 02:56:26;;;;;;;2.13;1.40;;;29.30;99.90;;;;;;5084157;28;20196;-81
2023/01/30 02:59:02;;;;;;;2.15;1.10;;;29.20;99.90;;;;;;5073441;28;20241;-78
2023/01/30 03:02:04;;;;;;;1.30;1.20;;;29.00;99.90;;;;;;5074523;28;20192;-79
2023/01/30 03:04:56;;;;;;;1.33;1.20;;;28.90;99.90;;;;;;5071179;28;20241;-83
2023/01/30 03:07:39;;;;;;;2.08;1.48;;;29.10;99.90;;;;;;5069915;28;20541;-78
2023/01/30 03:10:18;;;;;;;1.40;1.10;;;29.20;99.90;;;;;;5072837;28;20280;-83
2023/01/30 03:12:57;;;;;;;1.70;1.25;;;29.20;99.90;;;;;;5079148;28;20200;-81
2023/01/30 03:15:33;;;;;;;1.30;1.20;;;29.40;99.90;;;;;;5061528;28;20220;-80
2023/01/30 03:18:05;;;;;;;1.17;1.08;;;29.40;99.90;;;;;;5075087;28;20185;-82
2023/01/30 03:20:40;;;;;;;2.63;1.48;;;29.40;99.90;;;;;;5072076;28;20217;-80
2023/01/30 03:23:11;;;;;;;2.50;1.42;;;29.40;99.90;;;;;;5074016;28;20222;-79
2023/01/30 03:25:45;;;;;;;1.30;1.20;;;29.50;99.90;;;;;;5072212;28;20204;-81
2023/01/30 03:28:19;;;;;;;3.00;1.70;;;29.60;99.90;;;;;;5074860;28;20196;-81
2023/01/30 03:30:53;;;;;;;1.30;1.20;;;29.70;99.90;;;;;;5072027;28;21443;-78
2023/01/30 03:33:25;;;;;;;2.17;1.40;;;29.70;99.90;;;;;;5073636;28;20288;-79
2023/01/30 03:35:58;;;;;;;2.53;1.60;;;29.70;99.90;;;;;;5072350;28;20288;-84
2023/01/30 03:38:29;;;;;;;2.33;1.30;;;29.70;99.90;;;;;;5073647;28;20208;-82
2023/01/30 03:41:00;;;;;;;1.80;1.50;;;29.70;99.90;;;;;;5072969;28;20221;-82
2023/01/30 03:43:31;;;;;;;2.38;1.40;;;29.60;99.90;;;;;;5070321;28;20279;-80
2023/01/30 03:46:02;;;;;;;1.85;1.65;;;29.70;99.90;;;;;;5072387;28;20246;-79
2023/01/30 03:48:33;;;;;;;1.50;1.40;;;29.60;99.90;;;;;;5073307;28;20200;-79
2023/01/30 03:51:06;;;;;;;2.72;1.50;;;29.60;99.90;;;;;;5070538;28;20193;-81
2023/01/30 03:53:37;;;;;;;2.78;1.58;;;29.40;99.90;;;;;;5072524;28;20196;-81
2023/01/30 03:56:09;;;;;;;1.52;1.42;;;29.40;99.90;;;;;;5072911;28;20802;-78
2023/01/30 03:58:40;;;;;;;1.70;1.50;;;29.40;99.90;;;;;;5068838;28;20224;-81
2023/01/30 04:01:11;;;;;;;1.85;1.60;;;29.30;99.90;;;;;;5071893;28;20217;-76
2023/01/30 04:03:42;;;;;;;1.75;1.65;;;29.20;99.90;;;;;;5073903;28;20229;-79
2023/01/30 04:06:15;;;;;;;1.98;1.52;;;29.20;99.90;;;;;;5073874;28;20200;-78
2023/01/30 04:08:46;;;;;;;1.85;1.40;;;29.10;99.90;;;;;;5073909;28;20202;-77
2023/01/30 04:11:17;;;;;;;1.65;1.50;;;29.10;99.90;;;;;;5070907;28;20200;-80
2023/01/30 04:13:48;;;;;;;3.25;1.73;;;28.90;99.90;;;;;;5068961;28;20201;-79
2023/01/30 04:16:21;;;;;;;1.73;1.58;;;28.90;99.90;;;;;;5071750;28;20645;-80
2023/01/30 04:18:52;;;;;;;1.90;1.70;;;28.70;99.90;;;;;;5066772;28;20649;-80
2023/01/30 04:21:25;;;;;;;1.98;1.70;;;28.60;99.90;;;;;;5070558;28;20212;-79
2023/01/30 04:23:56;;;;;;;2.88;1.77;;;28.60;99.90;;;;;;5069839;28;20558;-78
2023/01/30 04:26:27;;;;;;;2.03;1.80;;;28.60;99.90;;;;;;5073904;28;20189;-81
2023/01/30 04:28:57;;;;;;;1.83;1.73;;;28.50;99.90;;;;;;5064653;28;20290;-83
2023/01/30 04:31:28;;;;;;;3.08;2.55;;;28.40;99.90;;;;;;5068122;28;20287;-82
2023/01/30 04:33:59;;;;;;;1.70;1.60;;;28.40;99.90;;;;;;5074378;28;20280;-79
2023/01/30 04:36:32;;;;;;;1.90;1.60;;;28.50;99.90;;;;;;5068134;28;20663;-80
2023/01/30 04:39:02;;;;;;;3.88;1.50;;;28.50;99.90;;;;;;5066218;28;20197;-81
2023/01/30 04:41:33;;;;;;;1.83;1.55;;;28.60;99.90;;;;;;5070641;28;20223;-78
2023/01/30 04:44:04;;;;;;;1.70;1.60;;;28.60;99.90;;;;;;5070852;28;20189;-77
2023/01/30 04:46:37;;;;;;;2.10;1.70;;;28.50;99.90;;;;;;5072397;28;20208;-76
2023/01/30 04:49:08;;;;;;;1.73;1.63;;;28.40;99.90;;;;;;5066405;28;20530;-81
2023/01/30 04:51:41;;;;;;;3.08;1.60;;;28.20;99.90;;;;;;5073208;28;20196;-77
2023/01/30 04:54:12;;;;;;;4.20;1.80;;;28.00;99.90;;;;;;5073222;28;20227;-81
2023/01/30 04:56:43;;;;;;;2.95;1.60;;;27.60;99.90;;;;;;5073239;28;20623;-81
2023/01/30 04:59:13;;;;;;;1.75;1.65;;;27.30;99.90;;;;;;5073088;28;20711;-79
2023/01/30 05:01:44;;;;;;;2.67;1.80;;;27.00;99.90;;;;;;5073161;28;20275;-77
2023/01/30 05:04:16;;;;;;;2.10;1.80;;;26.90;99.90;;;;;;5070394;28;20279;-77
2023/01/30 05:06:49;;;;;;;1.85;1.67;;;26.80;99.90;;;;;;5073034;28;20197;-78
2023/01/30 05:09:20;;;;;;;2.00;1.80;;;26.60;99.90;;;;;;5073205;28;20276;-80
2023/01/30 05:11:51;;;;;;;2.58;1.90;;;26.50;99.90;;;;;;5072762;28;20193;-78
2023/01/30 05:14:22;;;;;;;4.70;2.00;;;26.40;99.90;;;;;;5073111;28;20193;-84
2023/01/30 05:16:53;;;;;;;3.40;1.95;;;26.30;99.90;;;;;;5073293;28;20229;-80
2023/01/30 05:19:23;;;;;;;2.42;1.95;;;26.20;99.90;;;;;;5071979;28;20224;-83
2023/01/30 05:21:56;;;;;;;2.00;1.80;;;26.20;99.90;;;;;;5071565;28;20716;-79
2023/01/30 05:24:27;;;;;;;4.07;2.10;;;26.10;99.90;;;;;;5053068;28;20276;-82
2023/01/30 05:26:58;;;;;;;4.15;2.10;;;26.00;99.90;;;;;;5053007;28;20720;-80
2023/01/30 05:29:29;;;;;;;2.45;1.95;;;26.00;99.90;;;;;;5053099;28;20273;-82
2023/01/30 05:31:59;;;;;;;2.80;2.10;;;25.80;99.90;;;;;;5061925;28;20196;-78
2023/01/30 05:34:30;;;;;;;3.47;2.10;;;25.70;99.90;;;;;;5072487;28;20197;-82
2023/01/30 05:37:03;;;;;;;6.53;2.90;;;25.60;99.90;;;;;;5072429;28;20246;-80
2023/01/30 05:39:34;;;;;;;3.65;2.50;;;25.50;99.90;;;;;;5059628;28;20197;-77
2023/01/30 05:42:05;;;;;;;4.80;2.75;;;25.40;99.90;;;;;;5069311;28;20196;-78
2023/01/30 05:44:35;;;;;;;5.60;2.95;;;25.40;99.90;;;;;;5072910;28;20649;-80
2023/01/30 05:47:06;;;;;;;7.30;3.22;;;25.20;99.90;;;;;;5070954;28;20276;-77
2023/01/30 05:49:37;;;;;;;4.10;3.35;;;25.10;99.90;;;;;;5071682;28;20307;-79
2023/01/30 05:52:10;;;;;;;5.22;3.05;;;25.00;99.90;;;;;;5071487;28;20199;-78
2023/01/30 05:54:41;;;;;;;5.85;3.22;;;24.90;99.90;;;;;;5088372;28;20220;-78
2023/01/30 05:57:11;;;;;;;7.78;3.42;;;24.80;99.90;;;;;;5085220;28;20297;-76
2023/01/30 05:59:43;;;;;;;5.40;3.30;;;24.60;99.90;;;;;;5061955;28;20240;-76
2023/01/30 06:02:14;;;;;;;5.18;3.40;;;24.40;99.90;;;;;;5064516;28;20663;-76
2023/01/30 06:04:45;;;;;;;4.50;3.40;;;24.20;99.90;;;;;;5071163;28;20197;-75
2023/01/30 06:07:17;;;;;;;5.88;3.30;;;24.10;99.90;;;;;;5069788;28;20713;-76
2023/01/30 06:09:48;;;;;;;7.20;3.80;;;24.00;99.90;;;;;;5069655;28;20687;-76
2023/01/30 06:12:19;;;;;;;4.68;3.42;;;23.90;99.90;;;;;;5067683;28;20224;-75
2023/01/30 06:14:50;;;;;;;4.03;2.97;;;23.90;99.90;;;;;;5069210;28;20675;-76
2023/01/30 06:17:21;;;;;;;6.03;2.97;;;23.80;99.90;;;;;;5068311;28;20284;-75
2023/01/30 06:19:51;;;;;;;7.18;2.78;;;23.80;99.90;;;;;;5068615;28;20741;-73
2023/01/30 06:22:24;;;;;;;7.43;2.60;;;23.80;99.90;;;;;;5068811;28;20676;-73
2023/01/30 06:24:55;;;;;;;7.32;2.28;;;23.70;99.90;;;;;;5064101;28;20213;-70
2023/01/30 06:27:26;;;;;;;7.47;2.40;;;23.50;99.90;;;;;;5067310;28;20231;-70
2023/01/30 06:29:57;;;;;;;4.25;2.08;;;23.30;99.90;;;;;;5068933;28;20227;-72
2023/01/30 06:32:27;;;;;;;8.95;2.10;;;23.20;99.90;;;;;;5069992;28;20209;-71
2023/01/30 06:34:58;;;;;;;6.20;1.80;;;23.10;99.90;;;;;;5070021;28;20304;-72
2023/01/30 06:37:31;;;;;;;6.35;1.98;;;23.00;99.90;;;;;;5068267;28;20747;-72
2023/01/30 06:40:02;;;;;;;5.20;1.90;;;22.90;99.90;;;;;;5070295;28;20189;-72
2023/01/30 06:42:33;;;;;;;4.95;1.50;;;22.90;99.90;;;;;;5071900;28;20216;-73
2023/01/30 06:45:04;;;;;;;4.05;1.40;;;22.80;99.90;;;;;;5071682;28;20193;-75
2023/01/30 06:47:35;;;;;;;4.38;1.50;;;22.80;99.90;;;;;;5074792;28;20197;-73
2023/01/30 06:50:06;;;;;;;4.32;1.88;;;22.70;99.90;;;;;;5074062;28;20197;-72
2023/01/30 06:52:43;;;;;;;5.32;2.03;;;22.70;99.90;;;;;;5060091;28;20201;-73
2023/01/30 06:55:15;;;;;;;4.15;1.80;;;22.70;99.90;;;;;;5073272;28;20216;-73
2023/01/30 06:57:47;;;;;;;4.82;1.17;;;22.70;99.90;;;;;;5060381;28;20566;-73
2023/01/30 07:00:19;;;;;;;1.85;1.00;;;22.60;99.90;;;;;;5071172;28;20209;-72
2023/01/30 07:02:50;;;;;;;2.47;1.00;;;22.50;99.90;;;;;;5068912;28;20204;-74
2023/01/30 07:05:21;;;;;;;2.55;0.98;;;22.50;99.90;;;;;;5068616;28;20280;-73
2023/01/30 07:07:54;;;;;;;3.00;0.95;;;22.50;99.90;;;;;;5075398;28;20202;-74
2023/01/30 07:10:25;;;;;;;1.92;0.90;;;22.40;99.90;;;;;;5072718;28;20223;-74
2023/01/30 07:12:56;;;;;;;1.92;0.85;;;22.40;99.90;;;;;;5074230;28;20204;-74
2023/01/30 07:15:27;;;;;;;1.35;0.80;;;22.40;99.90;;;;;;5072302;28;20303;-75
2023/01/30 07:17:58;;;;;;;1.15;0.75;;;22.30;99.90;;;;;;5075121;28;20200;-75
2023/01/30 07:20:30;;;;;;;1.95;0.60;;;22.30;99.90;;;;;;5071854;28;20216;-75
2023/01/30 07:23:03;;;;;;;1.77;0.60;;;22.40;99.90;;;;;;5074360;28;20664;-74
2023/01/30 07:25:34;;;;;;;3.03;0.38;;;22.30;99.90;;;;;;5074823;28;20197;-75
2023/01/30 07:28:06;;;;;;;1.40;0.40;;;22.30;99.90;;;;;;5073018;28;20207;-74
2023/01/30 07:30:37;;;;;;;1.08;0.40;;;22.30;99.90;;;;;;5072410;28;20193;-75
2023/01/30 07:33:08;;;;;;;2.22;0.70;;;22.20;99.90;;;;;;5073036;28;20283;-75
2023/01/30 07:35:40;;;;;;;1.08;0.38;;;22.10;99.90;;;;;;5072889;28;20204;-75
2023/01/30 07:38:13;;;;;;;1.60;0.40;;;22.10;99.90;;;;;;5071670;28;20208;-75
2023/01/30 07:40:44;;;;;;;2.70;0.65;;;22.10;99.90;;;;;;5069409;28;20243;-75
2023/01/30 07:43:15;;;;;;;3.50;0.70;;;22.10;99.90;;;;;;5071050;28;20204;-75
2023/01/30 07:45:47;;;;;;;1.58;0.57;;;22.00;99.90;;;;;;5074246;28;20197;-75
2023/01/30 07:48:19;;;;;;;1.27;0.60;;;22.00;99.90;;;;;;5074574;28;20192;-74
2023/01/30 07:50:50;;;;;;;2.22;0.70;;;22.00;99.90;;;;;;5073551;28;20197;-74
2023/01/30 07:53:23;;;;;;;1.17;0.70;;;21.90;99.90;;;;;;5072688;28;20287;-75
2023/01/30 07:55:54;;;;;;;3.13;0.80;;;21.90;99.90;;;;;;5070619;28;20277;-75
2023/01/30 07:58:25;;;;;;;2.30;0.57;;;22.00;99.90;;;;;;5072311;28;20236;-75
2023/01/30 08:00:58;;;;;;;3.08;0.60;;;21.90;99.90;;;;;;5072724;28;20569;-76
2023/01/30 08:03:29;;;;;;;2.70;0.70;;;21.80;99.90;;;;;;5073361;28;20288;-75
2023/01/30 08:05:59;;;;;;;3.45;0.68;;;21.80;99.90;;;;;;5072449;28;20652;-75
2023/01/30 08:08:32;;;;;;;3.97;0.80;;;21.80;99.90;;;;;;5073059;28;20201;-76
2023/01/30 08:11:03;;;;;;;1.63;0.60;;;21.80;99.90;;;;;;5072978;28;20208;-75
2023/01/30 08:13:35;;;;;;;2.50;0.75;;;21.80;99.90;;;;;;5071941;28;20287;-76
2023/01/30 08:16:07;;;;;;;2.65;0.63;;;21.80;99.90;;;;;;5072827;28;21743;-75
2023/01/30 08:18:38;;;;;;;2.55;0.73;;;21.70;99.90;;;;;;5072865;28;20292;-75
2023/01/30 08:21:09;;;;;;;3.00;0.80;;;21.70;99.90;;;;;;5059646;28;20702;-75
2023/01/30 08:23:42;;;;;;;4.22;0.80;;;21.70;99.90;;;;;;5070890;28;20196;-76
2023/01/30 08:26:13;;;;;;;5.85;0.88;;;21.70;99.90;;;;;;5072715;28;20639;-76
2023/01/30 08:28:44;;;;;;;5.22;1.00;;;21.70;99.90;;;;;;5072887;28;20204;-75
2023/01/30 08:31:15;;;;;;;4.07;0.90;;;21.70;99.90;;;;;;5073092;28;20562;-75
2023/01/30 08:33:46;;;;;;;6.93;1.05;;;21.70;99.90;;;;;;5072595;28;20598;-76
2023/01/30 08:36:17;;;;;;;4.57;0.75;;;21.70;99.90;;;;;;5072590;28;20201;-75
2023/01/30 08:38:50;;;;;;;6.78;0.80;;;21.70;99.90;;;;;;5073456;28;20189;-75
2023/01/30 08:41:21;;;;;;;3.95;0.95;;;21.70;99.90;;;;;;5071381;28;20687;-75
2023/01/30 08:43:52;;;;;;;6.28;0.80;;;21.60;99.90;;;;;;5070836;28;20279;-75
2023/01/30 08:46:23;;;;;;;6.47;1.00;;;21.60;99.90;;;;;;5073632;28;20201;-74
2023/01/30 08:48:54;;;;;;;3.13;0.70;;;21.60;99.90;;;;;;5072587;28;20208;-75
2023/01/30 08:51:25;;;;;;;3.25;0.70;;;21.50;99.90;;;;;;5072426;28;20195;-75
2023/01/30 08:53:57;;;;;;;2.95;0.60;;;21.50;99.90;;;;;;5070793;28;20231;-75
2023/01/30 08:56:28;;;;;;;4.13;0.68;;;21.50;99.90;;;;;;5068826;28;20280;-75
2023/01/30 08:58:59;;;;;;;2.33;0.60;;;21.50;99.90;;;;;;5071728;28;20224;-75
2023/01/30 09:01:30;;;;;;;2.35;0.60;;;21.50;99.90;;;;;;5072142;28;20223;-75
2023/01/30 09:04:01;;;;;;;4.80;0.60;;;21.50;99.90;;;;;;5073278;28;20201;-76
2023/01/30 09:06:35;;;;;;;3.72;0.70;;;21.50;99.90;;;;;;5072509;28;20280;-75
2023/01/30 09:09:08;;;;;;;4.22;0.90;;;21.50;99.90;;;;;;5073167;28;20201;-74
2023/01/30 09:11:42;;;;;;;1.23;0.75;;;21.60;99.90;;;;;;5072211;28;20200;-75
2023/01/30 09:14:13;;;;;;;6.03;1.17;;;21.50;99.90;;;;;;5071381;28;20200;-76
2023/01/30 09:16:44;;;;;;;1.55;0.63;;;21.50;99.90;;;;;;5069709;28;20199;-75
2023/01/30 09:19:15;;;;;;;4.53;0.70;;;21.50;99.90;;;;;;5065664;28;20585;-74
2023/01/30 09:21:46;;;;;;;2.83;0.95;;;21.50;99.90;;;;;;5071280;28;20220;-75
2023/01/30 09:24:19;;;;;;;4.10;0.80;;;21.40;99.90;;;;;;5064923;28;20193;-75
2023/01/30 09:26:50;;;;;;;4.38;1.00;;;21.40;99.90;;;;;;5067698;28;20203;-76
2023/01/30 09:29:22;;;;;;;5.22;1.10;;;21.40;99.90;;;;;;5069617;28;20223;-76
2023/01/30 09:31:53;;;;;;;6.50;1.15;;;21.40;99.90;;;;;;5069060;28;20216;-76
2023/01/30 09:34:26;;;;;;;3.50;1.13;;;21.40;99.90;;;;;;5071074;28;20584;-75
2023/01/30 09:36:58;;;;;;;6.70;1.45;;;21.30;99.90;;;;;;5068020;28;20284;-76
2023/01/30 09:39:32;;;;;;;8.90;1.50;;;21.30;99.90;;;;;;5071069;28;20197;-77
2023/01/30 09:42:31;;;;;;;6.47;1.98;;;21.30;99.90;;;;;;5072766;28;20270;-77
2023/01/30 09:45:25;;;;;;;5.63;1.48;;;21.30;99.90;;;;;;5071932;28;20208;-75
2023/01/30 09:48:08;;;;;;;7.55;2.20;;;21.30;99.90;;;;;;5070935;28;20197;-76
2023/01/30 09:50:59;;;;;;;6.28;1.88;;;21.30;99.90;;;;;;5069996;28;20334;-76
2023/01/30 09:53:38;;;;;;;8.60;1.80;;;21.30;99.90;;;;;;5063118;28;20201;-77
2023/01/30 09:56:11;;;;;;;11.95;1.92;;;21.30;99.90;;;;;;5070417;28;20197;-75
2023/01/30 09:58:47;;;;;;;4.95;1.55;;;21.30;99.90;;;;;;5071827;28;20242;-76
2023/01/30 10:01:25;;;;;;;4.88;1.70;;;21.30;99.90;;;;;;5069579;28;20208;-74
2023/01/30 10:04:08;;;;;;;6.82;1.95;;;21.30;99.90;;;;;;5063799;28;20200;-77
2023/01/30 10:06:49;;;;;;;8.77;2.03;;;21.20;99.90;;;;;;5075712;28;20272;-77
2023/01/30 10:09:28;;;;;;;4.15;2.00;;;21.20;99.90;;;;;;5076213;28;20197;-77
2023/01/30 10:12:10;;;;;;;5.72;1.88;;;21.20;99.90;;;;;;5072996;28;20200;-76
2023/01/30 10:15:05;;;;;;;6.75;2.47;;;21.20;99.90;;;;;;5069211;28;20711;-77
2023/01/30 10:17:49;;;;;;;9.18;2.80;;;21.10;99.90;;;;;;5074564;28;20208;-78
2023/01/30 10:20:32;;;;;;;9.13;2.67;;;21.10;99.90;;;;;;5073496;28;20197;-75
2023/01/30 10:23:18;;;;;;;8.45;2.85;;;21.00;99.90;;;;;;5075712;28;20224;-75
2023/01/30 10:25:52;;;;;;;12.55;3.42;;;21.00;99.90;;;;;;5068308;28;20199;-76
2023/01/30 10:28:29;;;;;;;10.70;2.78;;;20.90;99.90;;;;;;5069699;28;20220;-74
2023/01/30 10:31:06;;;;;;;7.85;2.75;;;20.90;99.90;;;;;;5074722;28;20197;-76
2023/01/30 10:33:43;;;;;;;7.90;3.00;;;20.90;99.90;;;;;;5072517;28;20656;-77
2023/01/30 10:36:17;;;;;;;11.15;3.00;;;20.90;99.90;;;;;;5073822;28;20201;-76
2023/01/30 10:38:51;;;;;;;8.55;2.50;;;20.90;99.90;;;;;;5074623;28;20189;-78
2023/01/30 10:41:28;;;;;;;6.60;2.50;;;20.80;99.90;;;;;;5073560;28;20199;-77
2023/01/30 10:44:07;;;;;;;8.98;2.28;;;20.80;99.90;;;;;;5073379;28;20214;-77
2023/01/30 10:47:07;;;;;;;6.75;2.35;;;20.80;99.90;;;;;;5074867;28;20534;-76
2023/01/30 10:49:45;;;;;;;8.45;2.53;;;20.80;99.90;;;;;;5075241;28;20189;-76
2023/01/30 10:52:29;;;;;;;7.55;2.08;;;20.80;99.90;;;;;;5061886;28;20194;-75
2023/01/30 10:55:09;;;;;;;7.25;2.15;;;20.80;99.90;;;;;;5071666;28;20225;-76
2023/01/30 10:57:50;;;;;;;7.25;2.00;;;20.80;99.90;;;;;;5069383;28;20203;-77
2023/01/30 11:00:30;;;;;;;4.32;1.80;;;20.80;99.90;;;;;;5073524;28;20193;-76
2023/01/30 11:03:19;;;;;;;5.35;2.05;;;20.80;99.90;;;;;;5072744;28;20224;-75
2023/01/30 11:05:53;;;;;;;4.93;1.88;;;20.80;99.90;;;;;;5064352;28;20216;-77
2023/01/30 11:08:26;;;;;;;8.63;2.10;;;20.80;99.90;;;;;;5073386;28;20193;-74
2023/01/30 11:11:01;;;;;;;7.40;2.22;;;20.80;99.90;;;;;;5073209;28;20660;-76
2023/01/30 11:13:34;;;;;;;8.32;2.30;;;20.90;99.90;;;;;;5073841;28;20285;-77
2023/01/30 11:16:10;;;;;;;8.50;2.10;;;20.90;99.90;;;;;;5073347;28;20660;-77
2023/01/30 11:18:50;;;;;;;7.68;2.30;;;20.90;99.90;;;;;;5073688;28;20204;-75
2023/01/30 11:21:25;;;;;;;5.60;2.00;;;20.90;99.90;;;;;;5070222;28;20192;-76
2023/01/30 11:23:57;;;;;;;7.95;2.20;;;20.90;99.90;;;;;;5069696;28;20570;-76
2023/01/30 11:26:35;;;;;;;10.00;2.17;;;20.90;99.90;;;;;;5065925;28;20222;-76
2023/01/30 11:29:26;;;;;;;3.30;1.83;;;20.90;99.90;;;;;;5072244;28;20197;-75
2023/01/30 11:32:02;;;;;;;7.03;2.17;;;20.90;99.90;;;;;;5072985;28;20201;-74
2023/01/30 11:34:33;;;;;;;8.50;1.90;;;20.90;99.90;;;;;;5073257;28;20204;-77
2023/01/30 11:37:27;;;;;;;10.82;2.20;;;20.90;99.90;;;;;;5071049;28;20220;-76
2023/01/30 11:39:57;;;;;;;5.85;1.83;;;20.90;99.90;;;;;;5072540;28;20232;-76
2023/01/30 11:42:33;;;;;;;8.95;1.77;;;21.00;99.90;;;;;;5071472;28;20300;-75
2023/01/30 11:45:04;;;;;;;7.10;1.90;;;20.90;99.90;;;;;;5070506;28;20708;-76
2023/01/30 11:47:37;;;;;;;6.63;1.90;;;21.00;99.90;;;;;;5072661;28;20288;-74
2023/01/30 11:50:16;;;;;;;6.00;1.70;;;21.00;99.90;;;;;;5067076;28;20208;-77
2023/01/30 11:52:48;;;;;;;8.45;1.60;;;21.00;99.90;;;;;;5072772;28;20193;-77
2023/01/30 11:55:21;;;;;;;8.43;1.80;;;21.00;99.90;;;;;;5074524;28;20229;-75
2023/01/30 11:57:55;;;;;;;8.38;1.80;;;21.00;99.90;;;;;;5071718;28;20568;-77
2023/01/30 12:00:28;;;;;;;8.65;1.90;;;21.00;99.90;;;;;;5072536;28;20203;-76
2023/01/30 12:03:07;;;;;;;5.32;2.00;;;21.00;99.90;;;;;;5072652;28;20217;-74
2023/01/30 12:05:42;;;;;;;8.60;2.10;;;21.00;99.90;;;;;;5067642;28;20542;-77
2023/01/30 12:08:25;;;;;;;9.93;2.60;;;21.00;99.90;;;;;;5072469;28;20192;-74
2023/01/30 12:10:59;;;;;;;10.88;2.40;;;21.00;99.90;;;;;;5078713;28;20648;-75
2023/01/30 12:13:35;;;;;;;9.82;2.50;;;21.00;99.90;;;;;;5073993;28;20207;-75
2023/01/30 12:16:22;;;;;;;7.80;2.13;;;21.00;99.90;;;;;;5073961;28;20644;-76
2023/01/30 12:19:07;;;;;;;10.52;2.40;;;21.00;99.90;;;;;;5063509;28;20215;-78
2023/01/30 12:21:48;;;;;;;5.75;2.08;;;21.10;99.90;;;;;;5058921;28;20195;-78
2023/01/30 12:24:27;;;;;;;4.93;2.10;;;21.00;99.90;;;;;;5085843;28;20231;-77
2023/01/30 12:27:03;;;;;;;8.75;2.20;;;21.00;99.90;;;;;;5094288;28;20664;-78
2023/01/30 12:29:38;;;;;;;9.30;2.30;;;21.10;99.90;;;;;;5053870;28;20272;-76
2023/01/30 12:32:15;;;;;;;7.53;2.25;;;21.10;99.90;;;;;;5054121;28;20189;-77
2023/01/30 12:34:49;;;;;;;11.30;2.40;;;21.10;99.90;;;;;;5066034;28;20196;-78
2023/01/30 12:37:40;;;;;;;9.23;2.50;;;21.10;99.90;;;;;;5073941;28;20193;-78
2023/01/30 12:40:19;;;;;;;6.57;2.20;;;21.10;99.90;;;;;;5074007;28;20671;-76
2023/01/30 12:43:25;;;;;;;7.72;2.20;;;21.10;99.90;;;;;;5068221;28;20220;-78
2023/01/30 12:46:06;;;;;;;10.07;2.40;;;21.10;99.90;;;;;;5045849;28;20656;-77
2023/01/30 12:48:56;;;;;;;8.98;2.30;;;21.10;99.90;;;;;;5062376;28;20654;-77
2023/01/30 12:51:42;;;;;;;12.88;2.42;;;21.10;99.90;;;;;;5072456;28;20199;-76
2023/01/30 12:54:24;;;;;;;9.60;2.35;;;21.10;99.90;;;;;;5072194;28;20228;-76
2023/01/30 12:57:05;;;;;;;11.75;2.53;;;21.10;99.90;;;;;;5070113;28;20204;-75
2023/01/30 12:59:47;;;;;;;7.53;1.98;;;21.10;99.90;;;;;;5071563;28;20232;-76
2023/01/30 13:02:30;;;;;;;10.10;2.28;;;21.10;99.90;;;;;;5072790;28;20238;-76
2023/01/30 13:05:21;;;;;;;10.00;2.30;;;21.10;99.90;;;;;;5077951;28;20697;-76
2023/01/30 13:08:13;;;;;;;6.90;2.10;;;21.10;99.90;;;;;;5071861;28;20196;-76
2023/01/30 13:10:50;;;;;;;9.25;2.30;;;21.10;99.90;;;;;;5053314;28;20189;-76
2023/01/30 13:13:25;;;;;;;8.00;2.20;;;21.10;99.90;;;;;;5057271;28;20207;-76
2023/01/30 13:16:05;;;;;;;8.07;2.50;;;21.10;99.90;;;;;;5058051;28;20576;-76
2023/01/30 13:18:44;;;;;;;7.20;2.03;;;21.10;99.90;;;;;;5073078;28;20185;-76
2023/01/30 13:21:22;;;;;;;8.27;2.50;;;21.20;99.90;;;;;;5073032;28;20192;-76
2023/01/30 13:24:06;;;;;;;6.70;2.05;;;21.10;99.90;;;;;;5073168;28;20221;-76
2023/01/30 13:26:40;;;;;;;5.40;2.30;;;21.10;99.90;;;;;;5073042;28;20668;-76
2023/01/30 13:29:17;;;;;;;4.55;2.33;;;21.10;99.90;;;;;;5072911;28;20191;-76
2023/01/30 13:31:55;;;;;;;5.88;2.30;;;21.10;99.90;;;;;;5073081;28;20195;-76